Terminal Aerodrome Forecast
Issued by NWS Cleveland, OH

Home | Current Version | Previous Version | Text Only | Print | Product List | Glossary On
Versions: 1 2 3 4 5 6 7 8 9 10 11 12 13 14 15 16 17 18 19 20 21 22 23 24 25 26 27 28 29 30 31 32 33
000
FTUS41 KCLE 201500 AAA
TAFCLE
TAF AMD
KCLE 201537Z 2016/2118 20011KT P6SM SCT025 BKN045
      TEMPO 2016/2018 BKN025
     FM202000 23006KT P6SM VCSH BKN045
     FM210100 23005KT P6SM SCT045 BKN120
     FM211000 22004KT 4SM BR FEW015 SCT100=

USA.gov is the U.S. government's official web portal to all federal, state and local government web resources and services.